createdAt,value
2023-04-04T00:01:44.947Z,1.90
2023-04-04T00:04:11.532Z,1.90
2023-04-04T00:06:38.024Z,2.10
2023-04-04T00:09:04.876Z,1.73
2023-04-04T00:11:31.368Z,2.00
2023-04-04T00:13:57.966Z,1.63
2023-04-04T00:16:24.491Z,1.97
2023-04-04T00:18:50.991Z,1.70
2023-04-04T00:21:17.917Z,1.83
2023-04-04T00:23:44.755Z,1.73
2023-04-04T00:26:11.343Z,1.70
2023-04-04T00:28:39.955Z,2.03
2023-04-04T00:31:07.453Z,1.70
2023-04-04T00:33:33.988Z,1.93
2023-04-04T00:36:00.516Z,1.97
2023-04-04T00:38:29.643Z,1.87
2023-04-04T00:40:57.153Z,1.87
2023-04-04T00:43:23.580Z,2.13
2023-04-04T00:45:53.362Z,1.40
2023-04-04T00:48:20.740Z,2.00
2023-04-04T00:50:47.852Z,2.33
2023-04-04T00:53:14.457Z,2.10
2023-04-04T00:55:43.327Z,2.27
2023-04-04T00:58:10.323Z,1.93
2023-04-04T01:00:37.628Z,2.17
2023-04-04T01:03:07.638Z,1.60
2023-04-04T01:05:34.323Z,2.00
2023-04-04T01:08:01.720Z,1.87
2023-04-04T01:10:30.668Z,2.00
2023-04-04T01:12:57.611Z,1.63
2023-04-04T01:15:24.124Z,2.00
2023-04-04T01:17:52.835Z,1.90
2023-04-04T01:20:25.028Z,2.10
2023-04-04T01:22:55.661Z,1.80
2023-04-04T01:25:34.959Z,1.90
2023-04-04T01:28:06.052Z,1.90
2023-04-04T01:30:36.352Z,2.10
2023-04-04T01:33:23.629Z,2.13
2023-04-04T01:36:02.003Z,1.90
2023-04-04T01:39:09.879Z,1.93
2023-04-04T01:41:39.266Z,1.80
2023-04-04T01:44:06.397Z,1.93
2023-04-04T01:46:33.112Z,2.50
2023-04-04T01:49:00.281Z,2.00
2023-04-04T01:51:32.076Z,2.20
2023-04-04T01:53:58.681Z,2.10
2023-04-04T01:56:25.169Z,1.73
2023-04-04T01:58:53.656Z,1.90
2023-04-04T02:01:20.362Z,1.80
2023-04-04T02:03:47.494Z,1.97
2023-04-04T02:06:14.396Z,2.43
2023-04-04T02:08:41.530Z,1.77
2023-04-04T02:11:09.369Z,2.30
2023-04-04T02:13:41.273Z,2.63
2023-04-04T02:16:09.120Z,2.10
2023-04-04T02:18:36.405Z,2.10
2023-04-04T02:21:02.866Z,2.27
2023-04-04T02:23:29.559Z,2.20
2023-04-04T02:25:56.171Z,2.00
2023-04-04T02:28:22.729Z,2.30
2023-04-04T02:30:49.304Z,2.00
2023-04-04T02:33:15.775Z,2.47
2023-04-04T02:35:42.405Z,2.30
2023-04-04T02:38:09.045Z,2.10
2023-04-04T02:40:42.256Z,2.63
2023-04-04T02:43:09.154Z,2.80
2023-04-04T02:45:36.252Z,2.77
2023-04-04T02:48:11.551Z,2.60
2023-04-04T02:50:43.606Z,3.50
2023-04-04T02:53:12.975Z,2.80
2023-04-04T02:55:39.465Z,2.23
2023-04-04T02:58:06.374Z,2.43
2023-04-04T03:00:32.870Z,2.60
2023-04-04T03:03:00.022Z,2.40
2023-04-04T03:05:32.641Z,2.73
2023-04-04T03:07:59.794Z,2.90
2023-04-04T03:10:31.598Z,2.70
2023-04-04T03:12:58.843Z,3.20
2023-04-04T03:15:27.572Z,2.50
2023-04-04T03:17:54.557Z,2.97
2023-04-04T03:20:26.399Z,2.90
2023-04-04T03:22:52.846Z,3.03
2023-04-04T03:25:19.315Z,2.53
2023-04-04T03:27:46.118Z,2.90
2023-04-04T03:30:19.736Z,2.80
2023-04-04T03:32:46.214Z,2.60
2023-04-04T03:35:12.994Z,2.60
2023-04-04T03:37:40.551Z,2.60
2023-04-04T03:40:07.851Z,2.70
2023-04-04T03:42:35.132Z,2.53
2023-04-04T03:45:07.376Z,2.63
2023-04-04T03:47:35.602Z,3.00
2023-04-04T03:50:02.484Z,2.50
2023-04-04T03:52:30.546Z,2.40
2023-04-04T03:54:58.023Z,2.47
2023-04-04T03:57:27.376Z,2.53
2023-04-04T03:59:53.822Z,2.23
2023-04-04T04:02:22.676Z,2.33
2023-04-04T04:04:49.199Z,2.70
2023-04-04T04:07:15.764Z,2.37
2023-04-04T04:09:42.229Z,2.30
2023-04-04T04:12:08.924Z,2.70
2023-04-04T04:14:35.504Z,2.40
2023-04-04T04:17:03.193Z,2.40
2023-04-04T04:19:29.988Z,2.40
2023-04-04T04:21:57.134Z,2.57
2023-04-04T04:24:23.566Z,2.40
2023-04-04T04:26:50.060Z,2.40
2023-04-04T04:29:16.628Z,2.63
2023-04-04T04:31:43.375Z,2.60
2023-04-04T04:34:10.530Z,2.73
2023-04-04T04:36:39.180Z,2.90
2023-04-04T04:39:19.169Z,3.00
2023-04-04T04:41:59.838Z,3.67
2023-04-04T04:44:27.140Z,4.00
2023-04-04T04:46:55.390Z,3.43
2023-04-04T04:49:22.287Z,3.53
2023-04-04T04:51:50.422Z,3.40
2023-04-04T04:54:18.391Z,4.30
2023-04-04T04:56:46.261Z,3.97
2023-04-04T04:59:15.011Z,3.87
2023-04-04T05:01:43.652Z,3.27
2023-04-04T05:04:10.235Z,3.13
2023-04-04T05:06:43.532Z,2.93
2023-04-04T05:09:15.009Z,2.83
2023-04-04T05:11:41.988Z,3.00
2023-04-04T05:14:10.311Z,2.60
2023-04-04T05:16:46.949Z,2.80
2023-04-04T05:19:14.783Z,2.80
2023-04-04T05:21:46.222Z,2.90
2023-04-04T05:24:19.995Z,2.77
2023-04-04T05:26:47.194Z,3.27
2023-04-04T05:29:13.748Z,3.43
2023-04-04T05:31:45.671Z,3.00
2023-04-04T05:34:17.609Z,3.07
2023-04-04T05:36:44.167Z,2.87
2023-04-04T05:39:10.752Z,3.00
2023-04-04T05:41:44.612Z,2.73
2023-04-04T05:44:16.106Z,2.70
2023-04-04T05:46:43.022Z,3.10
2023-04-04T05:49:10.119Z,2.80
2023-04-04T05:51:41.236Z,2.77
2023-04-04T05:54:11.709Z,3.70
2023-04-04T05:56:39.248Z,3.10
2023-04-04T05:59:11.938Z,3.10
2023-04-04T06:01:51.796Z,3.10
2023-04-04T06:04:18.824Z,3.33
2023-04-04T06:06:46.599Z,6.33
2023-04-04T06:09:13.352Z,4.83
2023-04-04T06:11:39.907Z,3.63
2023-04-04T06:14:09.287Z,3.23
2023-04-04T06:16:37.079Z,3.07
2023-04-04T06:19:03.961Z,3.40
2023-04-04T06:21:30.881Z,3.30
2023-04-04T06:23:58.016Z,3.27
2023-04-04T06:26:24.523Z,3.20
2023-04-04T06:28:51.355Z,3.27
2023-04-04T06:31:22.736Z,3.03
2023-04-04T06:33:50.362Z,2.80
2023-04-04T06:36:19.008Z,3.67
2023-04-04T06:38:46.989Z,3.17
2023-04-04T06:41:19.659Z,3.30
2023-04-04T06:43:48.603Z,3.80
2023-04-04T06:46:15.168Z,3.27
2023-04-04T06:48:42.508Z,3.43
2023-04-04T06:51:09.487Z,3.27
2023-04-04T06:53:39.254Z,3.80
2023-04-04T06:56:06.324Z,4.17
2023-04-04T06:58:32.756Z,3.83
2023-04-04T07:01:01.498Z,4.03
2023-04-04T07:03:28.281Z,3.57
2023-04-04T07:05:54.880Z,4.00
2023-04-04T07:08:21.289Z,3.87
2023-04-04T07:10:47.784Z,4.00
2023-04-04T07:13:14.580Z,5.40
2023-04-04T07:15:41.040Z,4.20
2023-04-04T07:18:07.669Z,3.73
2023-04-04T07:20:34.514Z,4.23
2023-04-04T07:23:01.083Z,4.00
2023-04-04T07:25:27.844Z,3.80
2023-04-04T07:28:02.348Z,3.37
2023-04-04T07:30:36.592Z,3.30
2023-04-04T07:33:04.644Z,3.23
2023-04-04T07:35:31.512Z,3.37
2023-04-04T07:37:58.299Z,3.40
2023-04-04T07:40:24.726Z,3.20
2023-04-04T07:42:51.725Z,3.90
2023-04-04T07:45:18.363Z,3.57
2023-04-04T07:47:45.224Z,3.93
2023-04-04T07:50:12.902Z,3.43
2023-04-04T07:52:40.677Z,3.20
2023-04-04T07:55:08.049Z,3.40
2023-04-04T07:57:40.670Z,3.20
2023-04-04T08:00:11.659Z,3.30
2023-04-04T08:02:40.799Z,3.30
2023-04-04T08:05:08.166Z,3.20
2023-04-04T08:07:34.626Z,3.50
2023-04-04T08:10:01.120Z,3.30
2023-04-04T08:12:27.956Z,2.97
2023-04-04T08:14:54.384Z,2.67
2023-04-04T08:17:20.912Z,3.23
2023-04-04T08:19:47.351Z,2.57
2023-04-04T08:22:13.774Z,2.97
2023-04-04T08:24:40.455Z,2.70
2023-04-04T08:27:07.244Z,2.47
2023-04-04T08:29:34.311Z,3.10
2023-04-04T08:32:01.164Z,2.47
2023-04-04T08:34:28.703Z,2.10
2023-04-04T08:36:55.697Z,2.73
2023-04-04T08:39:22.144Z,2.27
2023-04-04T08:41:57.506Z,2.80
2023-04-04T08:44:26.592Z,2.60
2023-04-04T08:46:54.107Z,2.60
2023-04-04T08:49:23.919Z,2.23
2023-04-04T08:51:52.383Z,2.00
2023-04-04T08:54:20.868Z,1.87
2023-04-04T08:56:48.105Z,1.80
2023-04-04T08:59:15.724Z,1.60
2023-04-04T09:01:42.508Z,1.87
2023-04-04T09:04:10.193Z,2.10
2023-04-04T09:06:37.321Z,2.63
2023-04-04T09:09:04.156Z,2.57
2023-04-04T09:11:31.869Z,2.40
2023-04-04T09:13:58.672Z,2.70
2023-04-04T09:16:27.560Z,2.63
2023-04-04T09:18:54.101Z,1.97
2023-04-04T09:28:34.148Z,2.30
2023-04-04T09:31:06.128Z,2.07
2023-04-04T09:33:34.114Z,2.23
2023-04-04T09:36:12.698Z,2.63
2023-04-04T09:38:43.002Z,2.70
2023-04-04T09:41:10.892Z,2.27
2023-04-04T09:43:39.788Z,2.23
2023-04-04T09:46:07.586Z,1.97
2023-04-04T09:48:36.797Z,1.83
2023-04-04T09:51:07.775Z,2.00
2023-04-04T09:53:36.643Z,2.00
2023-04-04T09:56:03.497Z,1.90
2023-04-04T09:58:31.984Z,1.87
2023-04-04T10:01:03.840Z,2.03
2023-04-04T10:03:31.068Z,2.03
2023-04-04T10:06:06.755Z,2.07
2023-04-04T10:08:59.204Z,1.80
2023-04-04T10:11:34.053Z,1.70
2023-04-04T10:14:02.695Z,1.80
2023-04-04T10:16:34.362Z,1.90
2023-04-04T10:19:03.706Z,1.90
2023-04-04T10:21:31.305Z,2.33
2023-04-04T10:23:59.074Z,2.00
2023-04-04T10:26:26.504Z,2.00
2023-04-04T10:28:53.350Z,1.97
2023-04-04T10:31:22.719Z,1.70
2023-04-04T10:34:05.230Z,1.70
2023-04-04T10:36:41.893Z,2.20
2023-04-04T10:39:38.019Z,2.43
2023-04-04T10:42:06.805Z,1.83
2023-04-04T10:44:38.040Z,1.87
2023-04-04T10:47:17.512Z,1.73
2023-04-04T10:49:45.732Z,1.80
2023-04-04T10:52:14.601Z,1.83
2023-04-04T10:54:42.197Z,1.90
2023-04-04T10:57:08.941Z,2.50
2023-04-04T10:59:56.332Z,1.50
2023-04-04T11:02:45.936Z,2.10
2023-04-04T11:05:20.808Z,1.97
2023-04-04T11:08:00.681Z,1.60
2023-04-04T11:10:44.602Z,1.97
2023-04-04T11:13:35.608Z,2.00
2023-04-04T11:16:15.499Z,2.00
2023-04-04T11:18:42.021Z,1.70
2023-04-04T11:21:13.716Z,1.80
2023-04-04T11:23:49.326Z,1.97
2023-04-04T11:26:42.628Z,2.00
2023-04-04T11:29:09.588Z,2.10
2023-04-04T11:31:43.055Z,2.10
2023-04-04T11:34:11.117Z,1.83
2023-04-04T11:36:37.749Z,2.10
2023-04-04T11:39:30.370Z,1.90
2023-04-04T11:42:03.316Z,1.80
2023-04-04T11:44:32.029Z,2.10
2023-04-04T11:47:09.264Z,1.80
2023-04-04T11:49:43.510Z,1.73
2023-04-04T11:52:12.702Z,2.10
2023-04-04T11:54:47.974Z,1.80
2023-04-04T11:57:16.224Z,1.67
2023-04-04T11:59:47.426Z,2.10
2023-04-04T12:02:16.776Z,2.00
2023-04-04T12:04:45.363Z,1.83
2023-04-04T12:07:12.850Z,2.00
2023-04-04T12:09:40.463Z,2.03
2023-04-04T12:12:08.100Z,2.23
2023-04-04T12:14:34.733Z,2.23
2023-04-04T12:17:02.840Z,1.63
2023-04-04T12:19:29.733Z,1.87
2023-04-04T12:21:57.559Z,2.10
2023-04-04T12:24:24.433Z,2.30
2023-04-04T12:26:52.745Z,1.70
2023-04-04T12:29:22.420Z,1.80
2023-04-04T12:31:49.948Z,2.07
2023-04-04T12:34:18.094Z,2.00
2023-04-04T12:36:47.750Z,1.77
2023-04-04T12:39:15.870Z,2.03
2023-04-04T12:41:52.313Z,1.97
2023-04-04T12:44:31.179Z,2.03
2023-04-04T12:47:03.176Z,1.90
2023-04-04T12:49:31.496Z,1.97
2023-04-04T12:52:04.899Z,2.03
2023-04-04T12:54:33.431Z,2.00
2023-04-04T12:57:02.603Z,1.60
2023-04-04T12:59:33.509Z,2.10
2023-04-04T13:02:08.890Z,1.90
2023-04-04T13:04:35.793Z,2.20
2023-04-04T13:07:02.584Z,1.80
2023-04-04T13:09:29.031Z,2.00
2023-04-04T13:12:02.472Z,2.10
2023-04-04T13:14:57.751Z,2.00
2023-04-04T13:17:25.028Z,1.90
2023-04-04T13:19:52.514Z,1.90
2023-04-04T13:22:18.960Z,1.87
2023-04-04T13:24:45.467Z,2.00
2023-04-04T13:27:12.201Z,2.10
2023-04-04T13:29:38.661Z,1.73
2023-04-04T13:32:05.800Z,2.00
2023-04-04T13:34:32.725Z,2.10
2023-04-04T13:36:59.143Z,2.10
2023-04-04T13:39:25.650Z,2.10
2023-04-04T13:41:52.046Z,2.10
2023-04-04T13:44:19.388Z,2.10
2023-04-04T13:46:45.869Z,1.87
2023-04-04T13:49:12.375Z,1.80
2023-04-04T13:51:38.836Z,1.90
2023-04-04T13:54:05.853Z,1.77
2023-04-04T13:56:32.349Z,1.93
2023-04-04T13:59:01.144Z,2.10
2023-04-04T14:01:27.825Z,1.80
2023-04-04T14:03:55.269Z,2.10
2023-04-04T14:06:21.800Z,1.90
2023-04-04T14:08:48.258Z,1.90
2023-04-04T14:11:15.804Z,3.10
2023-04-04T14:13:42.266Z,1.97
2023-04-04T14:16:09.418Z,1.97
2023-04-04T14:18:36.142Z,1.93
2023-04-04T14:21:03.319Z,2.13
2023-04-04T14:23:30.925Z,1.70
2023-04-04T14:25:58.098Z,1.80
2023-04-04T14:28:24.827Z,1.90
2023-04-04T14:30:51.548Z,1.80
2023-04-04T14:33:18.032Z,1.97
2023-04-04T14:35:44.414Z,2.07
2023-04-04T14:38:11.069Z,1.90
2023-04-04T14:40:37.870Z,1.70
2023-04-04T14:43:04.611Z,1.80
2023-04-04T14:45:32.212Z,1.90
2023-04-04T14:47:58.683Z,2.03
2023-04-04T14:50:25.138Z,2.07
2023-04-04T14:52:52.873Z,1.93
2023-04-04T14:55:20.216Z,2.10
2023-04-04T14:58:01.412Z,2.00
2023-04-04T15:00:29.360Z,1.90
2023-04-04T15:02:56.019Z,2.53
2023-04-04T15:05:25.166Z,2.10
2023-04-04T15:07:52.108Z,1.90
2023-04-04T15:10:18.618Z,1.90
2023-04-04T15:12:45.037Z,2.50
2023-04-04T15:15:13.135Z,1.57
2023-04-04T15:17:41.311Z,2.10
2023-04-04T15:20:08.574Z,1.80
2023-04-04T15:22:35.942Z,2.07
2023-04-04T15:25:03.668Z,1.80
2023-04-04T15:27:30.444Z,1.70
2023-04-04T15:29:56.816Z,2.20
2023-04-04T15:32:23.239Z,1.90
2023-04-04T15:34:49.714Z,1.90
2023-04-04T15:37:16.824Z,2.17
2023-04-04T15:39:52.209Z,1.93
2023-04-04T15:42:20.592Z,2.10
2023-04-04T15:44:47.108Z,2.23
2023-04-04T15:47:13.804Z,2.00
2023-04-04T15:49:40.273Z,2.10
2023-04-04T15:52:06.982Z,2.10
2023-04-04T15:54:33.446Z,1.97
2023-04-04T15:56:59.922Z,1.83
2023-04-04T15:59:27.209Z,2.03
2023-04-04T16:01:54.099Z,2.07
2023-04-04T16:04:20.660Z,2.17
2023-04-04T16:06:47.108Z,1.80
2023-04-04T16:09:13.949Z,1.77
2023-04-04T16:11:40.407Z,2.00
2023-04-04T16:14:09.237Z,1.77
2023-04-04T16:16:37.015Z,1.83
2023-04-04T16:19:03.587Z,1.90
2023-04-04T16:21:31.184Z,2.00
2023-04-04T16:23:57.673Z,1.97
2023-04-04T16:26:24.076Z,1.90
2023-04-04T16:28:50.742Z,2.07
2023-04-04T16:31:17.198Z,1.97
2023-04-04T16:33:43.950Z,2.00
2023-04-04T16:36:10.766Z,2.00
2023-04-04T16:38:37.364Z,1.87
2023-04-04T16:41:04.744Z,2.10
2023-04-04T16:43:31.305Z,1.80
2023-04-04T16:45:57.716Z,2.27
2023-04-04T16:48:24.211Z,2.07
2023-04-04T16:50:50.910Z,2.23
2023-04-04T16:53:17.510Z,1.80
2023-04-04T16:55:43.918Z,2.30
2023-04-04T16:58:10.362Z,2.10
2023-04-04T17:00:37.178Z,1.90
2023-04-04T17:03:04.153Z,2.00
2023-04-04T17:05:30.930Z,2.00
2023-04-04T17:07:57.326Z,2.00
2023-04-04T17:10:23.724Z,1.83
2023-04-04T17:12:51.152Z,1.97
2023-04-04T17:15:18.060Z,2.10
2023-04-04T17:17:44.880Z,2.40
2023-04-04T17:20:18.102Z,2.20
2023-04-04T17:22:45.652Z,2.60
2023-04-04T17:25:12.384Z,2.37
2023-04-04T17:27:38.934Z,2.57
2023-04-04T17:30:08.246Z,2.23
2023-04-04T17:32:35.014Z,1.70
2023-04-04T17:35:02.557Z,2.13
2023-04-04T17:37:29.842Z,2.20
2023-04-04T17:39:56.267Z,1.60
2023-04-04T17:42:22.723Z,1.80
2023-04-04T17:44:49.122Z,1.97
2023-04-04T17:47:16.019Z,1.77
2023-04-04T17:49:42.548Z,2.20
2023-04-04T17:52:08.993Z,2.37
2023-04-04T17:54:36.318Z,1.70
2023-04-04T17:57:03.456Z,1.90
2023-04-04T17:59:30.216Z,2.20
2023-04-04T18:01:56.774Z,1.93
2023-04-04T18:04:25.421Z,2.80
2023-04-04T18:06:52.397Z,3.93
2023-04-04T18:09:18.922Z,2.27
2023-04-04T18:11:45.641Z,2.37
2023-04-04T18:14:12.363Z,2.37
2023-04-04T18:16:41.061Z,2.00
2023-04-04T18:19:09.605Z,2.70
2023-04-04T18:21:37.214Z,2.43
2023-04-04T18:24:05.281Z,2.90
2023-04-04T18:26:32.069Z,3.10
2023-04-04T18:28:58.706Z,3.13
2023-04-04T18:31:26.830Z,3.60
2023-04-04T18:33:53.363Z,3.63
2023-04-04T18:36:19.844Z,3.50
2023-04-04T18:38:47.461Z,3.10
2023-04-04T18:41:15.810Z,3.43
2023-04-04T18:43:42.425Z,3.50
2023-04-04T18:46:09.013Z,3.17
2023-04-04T18:48:35.768Z,4.00
2023-04-04T18:51:02.377Z,4.20
2023-04-04T18:53:31.702Z,3.77
2023-04-04T18:55:58.964Z,3.60
2023-04-04T18:58:26.732Z,3.63
2023-04-04T19:00:55.696Z,3.67
2023-04-04T19:03:22.657Z,3.67
2023-04-04T19:05:49.852Z,3.60
2023-04-04T19:08:17.699Z,3.90
2023-04-04T19:10:47.897Z,4.00
2023-04-04T19:13:17.723Z,3.90
2023-04-04T19:15:44.429Z,4.07
2023-04-04T19:18:11.720Z,4.67
2023-04-04T19:20:38.940Z,4.40
2023-04-04T19:23:05.891Z,4.00
2023-04-04T19:25:32.426Z,4.30
2023-04-04T19:27:58.832Z,4.50
2023-04-04T19:30:44.749Z,4.47
2023-04-04T19:33:12.986Z,4.33
2023-04-04T19:35:49.504Z,4.90
2023-04-04T19:38:21.642Z,3.90
2023-04-04T19:40:50.440Z,4.17
2023-04-04T19:43:20.258Z,4.07
2023-04-04T19:45:54.676Z,4.10
2023-04-04T19:48:44.046Z,4.30
2023-04-04T19:51:12.355Z,4.00
2023-04-04T19:53:38.922Z,4.20
2023-04-04T19:56:09.032Z,4.67
2023-04-04T19:58:37.007Z,4.07
2023-04-04T20:01:04.883Z,4.10
2023-04-04T20:03:39.195Z,4.00
2023-04-04T20:06:07.928Z,4.47
2023-04-04T20:08:37.205Z,5.43
2023-04-04T20:11:05.455Z,6.30
2023-04-04T20:13:34.884Z,6.17
2023-04-04T20:16:04.179Z,5.57
2023-04-04T20:18:33.106Z,5.03
2023-04-04T20:21:06.762Z,5.33
2023-04-04T20:23:42.655Z,4.77
2023-04-04T20:26:10.395Z,4.70
2023-04-04T20:28:37.224Z,4.20
2023-04-04T20:31:10.199Z,4.03
2023-04-04T20:33:40.070Z,4.00
2023-04-04T20:36:26.011Z,4.40
2023-04-04T20:38:52.480Z,4.20
2023-04-04T20:41:24.475Z,4.60
2023-04-04T20:43:53.467Z,4.60
2023-04-04T20:46:21.657Z,4.70
2023-04-04T20:48:48.649Z,4.63
2023-04-04T20:51:32.109Z,4.57
2023-04-04T20:54:01.994Z,4.53
2023-04-04T20:56:41.058Z,5.33
2023-04-04T20:59:27.003Z,4.60
2023-04-04T21:01:54.016Z,5.20
2023-04-04T21:04:25.396Z,5.43
2023-04-04T21:06:56.355Z,4.87
2023-04-04T21:09:24.705Z,5.83
2023-04-04T21:11:52.027Z,5.33
2023-04-04T21:14:33.122Z,5.07
2023-04-04T21:16:59.530Z,5.30
2023-04-04T21:19:25.929Z,5.97
2023-04-04T21:21:52.474Z,6.00
2023-04-04T21:24:18.898Z,5.50
2023-04-04T21:26:45.848Z,5.27
2023-04-04T21:29:12.567Z,4.70
2023-04-04T21:31:40.966Z,4.20
2023-04-04T21:34:11.086Z,4.43
2023-04-04T21:36:38.408Z,5.20
2023-04-04T21:39:13.774Z,5.30
2023-04-04T21:41:41.108Z,5.37
2023-04-04T21:44:09.369Z,6.03
2023-04-04T21:46:38.503Z,5.40
2023-04-04T21:49:07.101Z,6.07
2023-04-04T21:51:33.951Z,6.30
2023-04-04T21:54:01.124Z,6.10
2023-04-04T21:56:31.495Z,6.00
2023-04-04T21:58:59.576Z,6.23
2023-04-04T22:01:26.875Z,6.63
2023-04-04T22:03:53.779Z,5.87
2023-04-04T22:06:27.213Z,5.47
2023-04-04T22:08:55.960Z,5.50
2023-04-04T22:11:26.012Z,5.37
2023-04-04T22:14:02.871Z,5.90
2023-04-04T22:16:30.795Z,5.40
2023-04-04T22:18:57.434Z,5.67
2023-04-04T22:21:26.014Z,5.50
2023-04-04T22:24:01.660Z,5.50
2023-04-04T22:26:34.430Z,5.53
2023-04-04T22:29:03.075Z,5.73
2023-04-04T22:31:30.654Z,5.00
2023-04-04T22:33:57.351Z,5.60
2023-04-04T22:36:24.855Z,5.43
2023-04-04T22:38:56.847Z,6.30
2023-04-04T22:41:27.294Z,6.63
2023-04-04T22:43:53.823Z,6.80
2023-04-04T22:46:20.476Z,6.53
2023-04-04T22:48:47.192Z,6.97
2023-04-04T22:51:15.121Z,6.53
2023-04-04T22:53:43.961Z,6.20
2023-04-04T22:56:10.730Z,6.30
2023-04-04T22:58:37.769Z,6.50
2023-04-04T23:01:04.718Z,5.80
2023-04-04T23:03:31.725Z,5.97
2023-04-04T23:05:58.147Z,5.80
2023-04-04T23:08:24.653Z,5.30
2023-04-04T23:10:51.099Z,5.90
2023-04-04T23:13:17.498Z,6.10
2023-04-04T23:15:45.020Z,6.60
2023-04-04T23:18:12.537Z,6.10
2023-04-04T23:20:39.457Z,6.53
2023-04-04T23:23:07.066Z,6.30
2023-04-04T23:25:33.572Z,6.47
2023-04-04T23:27:59.972Z,6.30
2023-04-04T23:30:27.305Z,5.60
2023-04-04T23:32:53.974Z,6.10
2023-04-04T23:35:20.467Z,7.03
2023-04-04T23:37:46.979Z,6.80
2023-04-04T23:40:13.595Z,6.73
2023-04-04T23:42:40.665Z,6.37
2023-04-04T23:45:07.834Z,6.93
2023-04-04T23:47:34.385Z,6.50
2023-04-04T23:50:01.095Z,6.10
2023-04-04T23:52:28.137Z,6.50
2023-04-04T23:54:54.548Z,6.53
2023-04-04T23:57:21.046Z,6.60
2023-04-04T23:59:47.493Z,6.17
